Time;durP1;ratioP1;P1;durP2;ratioP2;P2;SDS_P1;SDS_P2;PMS_P1;PMS_P2;Temp;Humidity;BMP_temperature;BMP_pressure;BME280_temperature;BME280_humidity;BME280_pressure;Samples;Min_cycle;Max_cycle;Signal;HPM_P1;HPM_P2
2021/08/14 00:01:51;;;;;;;;;;;18.80;74.30;;;;;;5081849;28;19918;-76
2021/08/14 00:04:16;;;;;;;;;;;18.80;74.60;;;;;;5082354;28;19915;-75
2021/08/14 00:06:41;;;;;;;;;;;18.80;75.00;;;;;;5083241;28;20005;-76
2021/08/14 00:09:07;;;;;;;;;;;18.80;75.10;;;;;;5082893;28;19916;-75
2021/08/14 00:11:32;;;;;;;;;;;18.80;75.20;;;;;;5083345;28;19924;-75
2021/08/14 00:13:58;;;;;;;;;;;18.80;75.10;;;;;;5082549;28;19935;-77
2021/08/14 00:16:23;;;;;;;;;;;18.80;75.00;;;;;;5082707;28;19923;-76
2021/08/14 00:18:48;;;;;;;;;;;18.90;75.50;;;;;;5083413;28;19915;-76
2021/08/14 00:21:14;;;;;;;;;;;18.80;75.20;;;;;;5082469;28;19923;-72
2021/08/14 00:23:39;;;;;;;;;;;18.80;75.30;;;;;;5082556;28;19912;-71
2021/08/14 00:26:05;;;;;;;;;;;18.80;75.20;;;;;;5083040;28;19908;-71
2021/08/14 00:28:30;;;;;;;;;;;18.80;75.60;;;;;;5081398;28;19916;-71
2021/08/14 00:30:56;;;;;;;;;;;18.70;75.20;;;;;;5082685;28;19908;-71
2021/08/14 00:33:21;;;;;;;;;;;18.70;75.50;;;;;;5082405;28;19935;-71
2021/08/14 00:35:46;;;;;;;;;;;18.70;75.60;;;;;;5082381;28;19991;-71
2021/08/14 00:38:12;;;;;;;;;;;18.60;76.30;;;;;;5081943;28;20015;-71
2021/08/14 00:40:39;;;;;;;;;;;18.60;76.40;;;;;;5081917;28;20341;-71
2021/08/14 00:43:05;;;;;;;;;;;18.60;76.40;;;;;;5081942;28;20316;-71
2021/08/14 00:45:31;;;;;;;;;;;18.60;76.60;;;;;;5081640;28;19974;-71
2021/08/14 00:47:56;;;;;;;;;;;18.60;76.70;;;;;;5082429;28;20378;-71
2021/08/14 00:50:22;;;;;;;;;;;18.60;76.70;;;;;;5081322;28;19915;-75
2021/08/14 00:52:47;;;;;;;;;;;18.60;76.30;;;;;;5081990;28;19938;-75
2021/08/14 00:55:13;;;;;;;;;;;18.60;76.30;;;;;;5082170;28;19919;-75
2021/08/14 00:57:40;;;;;;;;;;;18.50;76.70;;;;;;5081883;28;19920;-76
2021/08/14 01:00:06;;;;;;;;;;;18.50;77.20;;;;;;5081447;28;19916;-75
2021/08/14 01:02:31;;;;;;;;;;;18.40;77.60;;;;;;5081088;28;20337;-76
2021/08/14 01:04:57;;;;;;;;;;;18.40;77.40;;;;;;5081678;28;19913;-76
2021/08/14 01:07:22;;;;;;;;;;;18.40;77.20;;;;;;5080330;28;20114;-75
2021/08/14 01:09:48;;;;;;;;;;;18.40;77.30;;;;;;5080309;28;19935;-76
2021/08/14 01:12:15;;;;;;;;;;;18.40;77.90;;;;;;5081327;28;20286;-75
2021/08/14 01:14:42;;;;;;;;;;;18.30;78.00;;;;;;5081607;28;19908;-75
2021/08/14 01:17:08;;;;;;;;;;;18.30;78.40;;;;;;5081831;28;19915;-75
2021/08/14 01:19:33;;;;;;;;;;;18.30;78.00;;;;;;5081536;28;19916;-76
2021/08/14 01:21:59;;;;;;;;;;;18.20;78.20;;;;;;5081268;28;20224;-76
2021/08/14 01:24:24;;;;;;;;;;;18.20;78.90;;;;;;5081263;28;19916;-75
2021/08/14 01:26:49;;;;;;;;;;;18.10;79.40;;;;;;5081277;28;19916;-75
2021/08/14 01:29:15;;;;;;;;;;;18.10;79.70;;;;;;5080932;28;19915;-75
2021/08/14 01:31:41;;;;;;;;;;;18.10;79.70;;;;;;5081381;28;19908;-75
2021/08/14 01:34:07;;;;;;;;;;;18.10;79.80;;;;;;5080905;28;19930;-75
2021/08/14 01:36:33;;;;;;;;;;;18.00;80.10;;;;;;5080865;28;19918;-75
2021/08/14 01:38:59;;;;;;;;;;;18.00;80.20;;;;;;5081289;28;19912;-75
2021/08/14 01:41:25;;;;;;;;;;;18.00;80.40;;;;;;5079892;28;20437;-76
2021/08/14 01:43:53;;;;;;;;;;;17.90;80.50;;;;;;5080941;28;20011;-70
2021/08/14 01:46:19;;;;;;;;;;;17.90;80.50;;;;;;5080877;28;19955;-70
2021/08/14 01:48:44;;;;;;;;;;;17.90;80.60;;;;;;5081192;28;20387;-70
2021/08/14 01:51:10;;;;;;;;;;;17.80;80.60;;;;;;5080509;28;19931;-70
2021/08/14 01:53:35;;;;;;;;;;;17.80;80.80;;;;;;5080722;28;20019;-70
2021/08/14 01:56:01;;;;;;;;;;;17.80;81.00;;;;;;5081089;28;19912;-70
2021/08/14 01:58:26;;;;;;;;;;;17.70;80.90;;;;;;5080665;28;20010;-71
2021/08/14 02:00:52;;;;;;;;;;;17.70;80.90;;;;;;5080674;28;19912;-70
2021/08/14 02:03:17;;;;;;;;;;;17.70;81.00;;;;;;5080151;28;19961;-68
2021/08/14 02:05:43;;;;;;;;;;;17.70;81.30;;;;;;5080726;28;19909;-67
2021/08/14 02:08:09;;;;;;;;;;;17.70;81.30;;;;;;5079153;28;19932;-67
2021/08/14 02:10:34;;;;;;;;;;;17.70;81.30;;;;;;5079178;28;20390;-67
2021/08/14 02:12:59;;;;;;;;;;;17.70;81.30;;;;;;5062229;28;19913;-67
2021/08/14 02:15:25;;;;;;;;;;;17.60;81.20;;;;;;5080389;28;19909;-67
2021/08/14 02:17:50;;;;;;;;;;;17.60;81.60;;;;;;5079140;28;19969;-67
2021/08/14 02:20:16;;;;;;;;;;;17.60;81.50;;;;;;5080565;28;20424;-67
2021/08/14 02:22:41;;;;;;;;;;;17.60;81.70;;;;;;5078892;28;19942;-70
2021/08/14 02:25:07;;;;;;;;;;;17.50;81.90;;;;;;5080755;28;19912;-70
2021/08/14 02:27:32;;;;;;;;;;;17.50;82.10;;;;;;5080561;28;19915;-70
2021/08/14 02:29:58;;;;;;;;;;;17.50;82.50;;;;;;5080462;28;20447;-70
2021/08/14 02:32:23;;;;;;;;;;;17.40;82.40;;;;;;5080072;28;19920;-70
2021/08/14 02:34:48;;;;;;;;;;;17.40;82.60;;;;;;5080119;28;20109;-70
2021/08/14 02:37:14;;;;;;;;;;;17.40;82.90;;;;;;5080147;28;19919;-70
2021/08/14 02:39:39;;;;;;;;;;;17.30;83.00;;;;;;5079055;28;19908;-70
2021/08/14 02:42:05;;;;;;;;;;;17.30;83.00;;;;;;5079154;28;19913;-70
2021/08/14 02:44:30;;;;;;;;;;;17.30;83.20;;;;;;5080172;28;19923;-70
2021/08/14 02:46:55;;;;;;;;;;;17.30;83.10;;;;;;5080269;28;19919;-70
2021/08/14 02:49:21;;;;;;;;;;;17.20;83.00;;;;;;5080347;28;19917;-75
2021/08/14 02:51:47;;;;;;;;;;;17.20;83.20;;;;;;5078748;28;19931;-75
2021/08/14 02:54:12;;;;;;;;;;;17.20;83.40;;;;;;5081315;28;19917;-75
2021/08/14 02:56:37;;;;;;;;;;;17.20;83.40;;;;;;5084653;28;19915;-75
2021/08/14 02:59:03;;;;;;;;;;;17.20;83.50;;;;;;5084247;28;19920;-75
2021/08/14 03:01:28;;;;;;;;;;;17.10;83.30;;;;;;5083892;28;19912;-67
2021/08/14 03:03:54;;;;;;;;;;;17.10;83.50;;;;;;5084165;28;19912;-67
2021/08/14 03:06:26;;;;;;;;;;;17.10;83.60;;;;;;5084037;28;19954;-67
2021/08/14 03:08:51;;;;;;;;;;;17.10;83.90;;;;;;5083840;28;19955;-67
2021/08/14 03:11:16;;;;;;;;;;;17.00;83.80;;;;;;5082658;28;20376;-70
2021/08/14 03:13:42;;;;;;;;;;;17.00;84.00;;;;;;5083391;28;19998;-70
2021/08/14 03:16:07;;;;;;;;;;;17.00;83.70;;;;;;5083881;28;19952;-70
2021/08/14 03:18:33;;;;;;;;;;;17.00;84.50;;;;;;5084095;28;19944;-70
2021/08/14 03:20:58;;;;;;;;;;;16.90;84.80;;;;;;5083854;28;19962;-70
2021/08/14 03:23:23;;;;;;;;;;;16.90;84.90;;;;;;5083396;28;19966;-70
2021/08/14 03:25:49;;;;;;;;;;;16.90;85.40;;;;;;5083870;28;19919;-67
2021/08/14 03:28:14;;;;;;;;;;;16.80;85.40;;;;;;5083859;28;19947;-67
2021/08/14 03:30:40;;;;;;;;;;;16.80;85.90;;;;;;5083214;28;19908;-67
2021/08/14 03:33:05;;;;;;;;;;;16.80;86.10;;;;;;5083305;28;19920;-70
2021/08/14 03:35:31;;;;;;;;;;;16.80;86.10;;;;;;5082086;28;19908;-70
2021/08/14 03:37:56;;;;;;;;;;;16.70;86.40;;;;;;5083267;28;19920;-70
2021/08/14 03:40:21;;;;;;;;;;;16.70;86.40;;;;;;5083262;28;19908;-70
2021/08/14 03:42:47;;;;;;;;;;;16.70;86.40;;;;;;5083471;28;20010;-70
2021/08/14 03:45:12;;;;;;;;;;;16.70;86.00;;;;;;5081984;28;20038;-70
2021/08/14 03:47:38;;;;;;;;;;;16.70;86.40;;;;;;5082433;28;19920;-70
2021/08/14 03:50:04;;;;;;;;;;;16.70;86.70;;;;;;5083424;28;20322;-70
2021/08/14 03:52:30;;;;;;;;;;;16.60;86.70;;;;;;5082446;28;19931;-71
2021/08/14 03:54:55;;;;;;;;;;;16.60;87.00;;;;;;5083733;28;19908;-71
2021/08/14 03:57:20;;;;;;;;;;;16.60;87.70;;;;;;5082808;28;19941;-71
2021/08/14 03:59:46;;;;;;;;;;;16.60;87.30;;;;;;5082887;28;19952;-75
2021/08/14 04:02:11;;;;;;;;;;;16.50;87.40;;;;;;5083166;28;20371;-75
2021/08/14 04:04:37;;;;;;;;;;;16.50;87.50;;;;;;5082514;28;20270;-75
2021/08/14 04:07:02;;;;;;;;;;;16.40;86.80;;;;;;5083020;28;19915;-75
2021/08/14 04:09:28;;;;;;;;;;;16.40;87.20;;;;;;5082757;28;20297;-75
2021/08/14 04:11:53;;;;;;;;;;;16.50;87.50;;;;;;5082983;28;19994;-74
2021/08/14 04:14:18;;;;;;;;;;;16.50;87.70;;;;;;5082484;28;19925;-71
2021/08/14 04:16:44;;;;;;;;;;;16.50;87.60;;;;;;5081861;28;19962;-70
2021/08/14 04:19:10;;;;;;;;;;;16.40;87.40;;;;;;5082678;28;20001;-70
2021/08/14 04:21:35;;;;;;;;;;;16.40;87.80;;;;;;5082427;28;19912;-70
2021/08/14 04:24:01;;;;;;;;;;;16.40;88.20;;;;;;5081911;28;19958;-70
2021/08/14 04:26:29;;;;;;;;;;;16.50;88.30;;;;;;5082590;28;19909;-70
2021/08/14 04:28:54;;;;;;;;;;;16.50;88.30;;;;;;5082620;28;19947;-70
2021/08/14 04:31:19;;;;;;;;;;;16.60;88.50;;;;;;5082375;28;20465;-70
2021/08/14 04:33:45;;;;;;;;;;;16.60;88.30;;;;;;5080780;28;19965;-71
2021/08/14 04:36:10;;;;;;;;;;;16.70;88.30;;;;;;5082887;28;19931;-70
2021/08/14 04:38:36;;;;;;;;;;;16.90;87.90;;;;;;5082308;28;19919;-70
2021/08/14 04:41:01;;;;;;;;;;;16.90;87.60;;;;;;5082326;28;19915;-70
2021/08/14 04:43:26;;;;;;;;;;;16.90;87.40;;;;;;5082012;28;19912;-70
2021/08/14 04:45:52;;;;;;;;;;;16.90;87.00;;;;;;5082415;28;20290;-70
2021/08/14 04:48:17;;;;;;;;;;;16.90;87.20;;;;;;5081468;28;20375;-70
2021/08/14 04:50:43;;;;;;;;;;;16.80;87.10;;;;;;5082071;28;19908;-70
2021/08/14 04:53:08;;;;;;;;;;;16.80;87.10;;;;;;5081882;28;20053;-70
2021/08/14 04:55:33;;;;;;;;;;;16.80;87.10;;;;;;5081966;28;20020;-70
2021/08/14 04:57:59;;;;;;;;;;;16.80;86.90;;;;;;5081854;28;20389;-70
2021/08/14 05:00:24;;;;;;;;;;;16.80;86.80;;;;;;5081782;28;20258;-70
2021/08/14 05:02:50;;;;;;;;;;;16.80;86.90;;;;;;5081929;28;19912;-70
2021/08/14 05:05:15;;;;;;;;;;;16.80;86.80;;;;;;5081466;28;20321;-70
2021/08/14 05:07:41;;;;;;;;;;;16.80;86.30;;;;;;5081872;28;19916;-70
2021/08/14 05:10:06;;;;;;;;;;;16.80;86.60;;;;;;5080557;28;20374;-70
2021/08/14 05:12:32;;;;;;;;;;;16.80;86.60;;;;;;5080220;28;19974;-70
2021/08/14 05:14:57;;;;;;;;;;;16.80;86.50;;;;;;5081633;28;19962;-70
2021/08/14 05:17:23;;;;;;;;;;;16.90;86.50;;;;;;5080715;28;20465;-70
2021/08/14 05:19:48;;;;;;;;;;;16.90;86.30;;;;;;5081312;28;19991;-70
2021/08/14 05:22:13;;;;;;;;;;;16.90;86.40;;;;;;5080185;28;19915;-70
2021/08/14 05:24:39;;;;;;;;;;;16.90;86.50;;;;;;5081522;28;19912;-70
2021/08/14 05:27:05;;;;;;;;;;;16.90;86.50;;;;;;5080994;28;19908;-70
2021/08/14 05:29:30;;;;;;;;;;;16.90;86.40;;;;;;5081333;28;19919;-70
2021/08/14 05:31:56;;;;;;;;;;;16.90;86.40;;;;;;5080774;28;20378;-67
2021/08/14 05:34:21;;;;;;;;;;;17.00;86.20;;;;;;5079571;28;20375;-68
2021/08/14 05:36:46;;;;;;;;;;;17.00;86.20;;;;;;5081309;28;20395;-67
2021/08/14 05:39:12;;;;;;;;;;;17.10;85.80;;;;;;5081200;28;19912;-67
2021/08/14 05:41:40;;;;;;;;;;;17.10;86.00;;;;;;5081134;28;19912;-67
2021/08/14 05:44:08;;;;;;;;;;;17.20;86.10;;;;;;5080903;28;19915;-67
2021/08/14 05:46:34;;;;;;;;;;;17.20;85.80;;;;;;5080677;28;19908;-67
2021/08/14 05:48:59;;;;;;;;;;;17.30;85.50;;;;;;5080883;28;19916;-71
2021/08/14 05:51:25;;;;;;;;;;;17.30;85.90;;;;;;5081633;28;19919;-67
2021/08/14 05:53:51;;;;;;;;;;;17.50;85.70;;;;;;5080706;28;20023;-68
2021/08/14 05:56:16;;;;;;;;;;;17.70;85.30;;;;;;5080713;28;20035;-67
2021/08/14 05:58:41;;;;;;;;;;;17.90;84.90;;;;;;5080649;28;19989;-67
2021/08/14 06:01:07;;;;;;;;;;;18.00;84.60;;;;;;5079524;28;20012;-67
2021/08/14 06:03:36;;;;;;;;;;;18.20;84.20;;;;;;5080566;28;20019;-67
2021/08/14 06:06:02;;;;;;;;;;;18.30;83.80;;;;;;5080424;28;19915;-67
2021/08/14 06:08:28;;;;;;;;;;;18.50;83.20;;;;;;5080101;28;19915;-67
2021/08/14 06:10:53;;;;;;;;;;;18.60;83.20;;;;;;5080826;28;19912;-67
2021/08/14 06:13:18;;;;;;;;;;;18.80;83.20;;;;;;5080334;28;19916;-67
2021/08/14 06:15:44;;;;;;;;;;;19.00;81.80;;;;;;5080950;28;19918;-67
2021/08/14 06:18:12;;;;;;;;;;;19.20;81.30;;;;;;5080673;28;19995;-68
2021/08/14 06:20:38;;;;;;;;;;;19.30;80.70;;;;;;5080045;28;19916;-67
2021/08/14 06:23:03;;;;;;;;;;;19.50;80.20;;;;;;5080586;28;19916;-67
2021/08/14 06:25:28;;;;;;;;;;;19.50;79.90;;;;;;5080260;28;19930;-68
2021/08/14 06:27:54;;;;;;;;;;;19.60;79.40;;;;;;5080289;28;20437;-67
2021/08/14 06:30:19;;;;;;;;;;;19.50;79.10;;;;;;5079130;28;19966;-67
2021/08/14 06:32:45;;;;;;;;;;;19.50;78.60;;;;;;5080272;28;19920;-67
2021/08/14 06:35:10;;;;;;;;;;;19.50;78.90;;;;;;5078893;28;19908;-67
2021/08/14 06:37:43;;;;;;;;;;;19.70;78.50;;;;;;5080216;28;19912;-72
2021/08/14 06:40:09;;;;;;;;;;;19.80;78.30;;;;;;5080280;28;19908;-75
2021/08/14 06:42:34;;;;;;;;;;;20.00;77.70;;;;;;5080245;28;19947;-75
2021/08/14 06:45:00;;;;;;;;;;;20.10;77.20;;;;;;5061877;28;20315;-75
2021/08/14 06:47:25;;;;;;;;;;;20.20;76.70;;;;;;5080269;28;19992;-75
2021/08/14 06:49:50;;;;;;;;;;;20.40;75.60;;;;;;5080301;28;19915;-67
2021/08/14 06:52:16;;;;;;;;;;;20.50;75.70;;;;;;5080274;28;20273;-75
2021/08/14 06:54:41;;;;;;;;;;;20.60;74.60;;;;;;5080229;28;19908;-67
2021/08/14 06:57:07;;;;;;;;;;;20.60;74.60;;;;;;5080293;28;20382;-67
2021/08/14 06:59:32;;;;;;;;;;;20.70;73.90;;;;;;5080049;28;19916;-67
2021/08/14 07:01:58;;;;;;;;;;;20.70;72.90;;;;;;5079660;28;19908;-76
2021/08/14 07:04:23;;;;;;;;;;;20.80;74.10;;;;;;5079827;28;19920;-75
2021/08/14 07:06:49;;;;;;;;;;;21.00;74.00;;;;;;5080517;28;19908;-75
2021/08/14 07:09:14;;;;;;;;;;;21.10;73.70;;;;;;5080006;28;20014;-75
2021/08/14 07:11:40;;;;;;;;;;;21.10;72.10;;;;;;5079785;28;19912;-71
2021/08/14 07:14:05;;;;;;;;;;;21.10;70.70;;;;;;5080025;28;19930;-70
2021/08/14 07:16:30;;;;;;;;;;;21.10;71.70;;;;;;5079777;28;20295;-70
2021/08/14 07:18:56;;;;;;;;;;;21.10;71.70;;;;;;5080095;28;20279;-70
2021/08/14 07:21:21;;;;;;;;;;;21.20;71.50;;;;;;5079759;28;20346;-71
2021/08/14 07:23:47;;;;;;;;;;;21.30;71.70;;;;;;5079468;28;20373;-70
2021/08/14 07:26:12;;;;;;;;;;;21.50;71.70;;;;;;5079980;28;19908;-70
2021/08/14 07:28:37;;;;;;;;;;;21.60;70.90;;;;;;5079829;28;19908;-71
2021/08/14 07:31:04;;;;;;;;;;;21.70;70.20;;;;;;5080104;28;19913;-70
2021/08/14 07:33:29;;;;;;;;;;;21.70;70.50;;;;;;5079406;28;20008;-70
2021/08/14 07:35:54;;;;;;;;;;;21.90;70.30;;;;;;5078545;28;19938;-70
2021/08/14 07:38:20;;;;;;;;;;;22.00;69.50;;;;;;5079652;28;19908;-70
2021/08/14 07:40:45;;;;;;;;;;;22.20;70.20;;;;;;5081482;28;19912;-70
2021/08/14 07:43:11;;;;;;;;;;;22.40;69.60;;;;;;5083823;28;19912;-70
2021/08/14 07:45:37;;;;;;;;;;;22.50;67.40;;;;;;5082939;28;19908;-70
2021/08/14 07:48:03;;;;;;;;;;;22.40;67.50;;;;;;5083277;28;19962;-70
2021/08/14 07:50:29;;;;;;;;;;;22.50;68.20;;;;;;5083006;28;20362;-67
2021/08/14 07:52:55;;;;;;;;;;;22.60;67.90;;;;;;5081718;28;19961;-67
2021/08/14 07:55:21;;;;;;;;;;;22.70;68.20;;;;;;5081573;28;20378;-67
2021/08/14 07:57:46;;;;;;;;;;;22.80;67.30;;;;;;5082636;28;19955;-67
2021/08/14 08:00:13;;;;;;;;;;;22.80;67.20;;;;;;5082931;28;20367;-67
2021/08/14 08:02:39;;;;;;;;;;;22.90;67.20;;;;;;5083436;28;19919;-67
2021/08/14 08:05:06;;;;;;;;;;;23.00;67.60;;;;;;5083267;28;19912;-68
2021/08/14 08:07:31;;;;;;;;;;;23.20;67.10;;;;;;5082292;28;19912;-67
2021/08/14 08:09:57;;;;;;;;;;;23.20;66.20;;;;;;5082681;28;20437;-67
2021/08/14 08:12:22;;;;;;;;;;;23.20;65.60;;;;;;5082587;28;19909;-67
2021/08/14 08:14:47;;;;;;;;;;;23.30;66.40;;;;;;5082863;28;20323;-67
2021/08/14 08:17:13;;;;;;;;;;;23.40;65.80;;;;;;5082592;28;19915;-67
2021/08/14 08:19:38;;;;;;;;;;;23.40;65.20;;;;;;5081215;28;19919;-67
2021/08/14 08:22:04;;;;;;;;;;;23.30;65.50;;;;;;5082713;28;19912;-67
2021/08/14 08:24:30;;;;;;;;;;;23.30;65.40;;;;;;5082107;28;19969;-67
2021/08/14 08:26:56;;;;;;;;;;;23.30;64.10;;;;;;5082509;28;20287;-67
2021/08/14 08:29:21;;;;;;;;;;;23.30;63.80;;;;;;5082543;28;19913;-67
2021/08/14 08:31:47;;;;;;;;;;;23.30;63.50;;;;;;5080935;28;20305;-67
2021/08/14 08:34:13;;;;;;;;;;;23.40;63.00;;;;;;5082233;28;19915;-67
2021/08/14 08:36:38;;;;;;;;;;;23.40;62.90;;;;;;5081936;28;20011;-67
2021/08/14 08:39:04;;;;;;;;;;;23.40;62.30;;;;;;5082061;28;19959;-67
2021/08/14 08:41:30;;;;;;;;;;;23.50;62.80;;;;;;5081971;28;19920;-67
2021/08/14 08:43:57;;;;;;;;;;;23.70;62.50;;;;;;5082056;28;19986;-67
2021/08/14 08:46:23;;;;;;;;;;;23.70;62.40;;;;;;5080503;28;20015;-67
2021/08/14 08:48:50;;;;;;;;;;;23.80;62.00;;;;;;5082164;28;20019;-75
2021/08/14 08:51:19;;;;;;;;;;;23.80;62.00;;;;;;5081870;28;20363;-75
2021/08/14 08:53:45;;;;;;;;;;;23.90;62.30;;;;;;5081977;28;19966;-76
2021/08/14 08:56:10;;;;;;;;;;;23.90;61.70;;;;;;5080037;28;19948;-72
2021/08/14 08:58:35;;;;;;;;;;;24.00;62.60;;;;;;5081778;28;19912;-72
2021/08/14 09:01:02;;;;;;;;;;;24.00;61.60;;;;;;5081871;28;19951;-67
2021/08/14 09:03:29;;;;;;;;;;;24.00;61.60;;;;;;5080266;28;19915;-67
2021/08/14 09:05:54;;;;;;;;;;;24.00;62.00;;;;;;5080113;28;19927;-67
2021/08/14 09:08:20;;;;;;;;;;;24.00;61.60;;;;;;5080992;28;19909;-67
2021/08/14 09:10:46;;;;;;;;;;;23.90;62.00;;;;;;5080369;28;20637;-68
2021/08/14 09:13:15;;;;;;;;;;;23.90;61.90;;;;;;5081003;28;19934;-75
2021/08/14 09:15:41;;;;;;;;;;;24.00;61.90;;;;;;5062930;28;19951;-75
2021/08/14 09:18:08;;;;;;;;;;;24.00;62.10;;;;;;5081797;28;19955;-75
2021/08/14 09:20:44;;;;;;;;;;;24.10;62.00;;;;;;5096612;28;19912;-76
2021/08/14 09:23:15;;;;;;;;;;;24.10;61.40;;;;;;5079994;28;19916;-76
2021/08/14 09:25:42;;;;;;;;;;;24.10;61.90;;;;;;5081271;28;19920;-76
2021/08/14 09:28:08;;;;;;;;;;;24.20;61.30;;;;;;5081293;28;19959;-76
2021/08/14 09:30:44;;;;;;;;;;;24.30;61.30;;;;;;5080784;28;19908;-76
2021/08/14 09:33:10;;;;;;;;;;;24.40;61.10;;;;;;5080670;28;19931;-76
2021/08/14 09:35:35;;;;;;;;;;;24.60;60.90;;;;;;5080973;28;19909;-76
2021/08/14 09:38:05;;;;;;;;;;;24.60;60.20;;;;;;5080750;28;20073;-75
2021/08/14 09:40:41;;;;;;;;;;;24.60;60.70;;;;;;5081455;28;19912;-76
2021/08/14 09:43:07;;;;;;;;;;;24.60;60.20;;;;;;5080425;28;20006;-70
2021/08/14 09:45:33;;;;;;;;;;;24.60;60.70;;;;;;5079421;28;19999;-70
2021/08/14 09:48:12;;;;;;;;;;;24.70;60.80;;;;;;5079625;28;19912;-70
2021/08/14 09:50:38;;;;;;;;;;;24.90;60.70;;;;;;5095871;28;19911;-71
2021/08/14 09:53:11;;;;;;;;;;;24.90;59.60;;;;;;5080668;28;19912;-70
2021/08/14 09:55:36;;;;;;;;;;;24.90;60.00;;;;;;5080615;28;19912;-72
2021/08/14 09:58:02;;;;;;;;;;;25.00;59.70;;;;;;5080635;28;19963;-68
2021/08/14 10:00:28;;;;;;;;;;;25.10;60.00;;;;;;5079101;28;19943;-68
2021/08/14 10:02:56;;;;;;;;;;;25.30;59.40;;;;;;5080131;28;19963;-68
2021/08/14 10:05:21;;;;;;;;;;;25.50;60.00;;;;;;5078853;28;19927;-68
2021/08/14 10:07:46;;;;;;;;;;;25.70;58.60;;;;;;5079300;28;19992;-68
2021/08/14 10:10:12;;;;;;;;;;;25.70;57.90;;;;;;5079128;28;19912;-68
2021/08/14 10:12:37;;;;;;;;;;;25.80;57.30;;;;;;5079202;28;19923;-68
2021/08/14 10:15:03;;;;;;;;;;;25.90;56.40;;;;;;5079558;28;19919;-68
2021/08/14 10:17:29;;;;;;;;;;;25.90;56.40;;;;;;5079227;28;19963;-68
2021/08/14 10:19:55;;;;;;;;;;;25.80;55.70;;;;;;5080649;28;19912;-68
2021/08/14 10:22:24;;;;;;;;;;;25.70;56.20;;;;;;5080214;28;19916;-68
2021/08/14 10:24:50;;;;;;;;;;;25.60;56.90;;;;;;5080352;28;19920;-68
2021/08/14 10:27:16;;;;;;;;;;;25.70;57.10;;;;;;5079840;28;19908;-68
2021/08/14 10:29:46;;;;;;;;;;;25.90;56.60;;;;;;5080409;28;20383;-68
2021/08/14 10:32:30;;;;;;;;;;;25.90;56.30;;;;;;5061963;28;20332;-68
2021/08/14 10:35:14;;;;;;;;;;;25.90;56.50;;;;;;5080504;28;19960;-72
2021/08/14 10:37:40;;;;;;;;;;;25.80;56.10;;;;;;5080168;28;19947;-70
2021/08/14 10:40:06;;;;;;;;;;;25.70;56.90;;;;;;5080638;28;19997;-70
2021/08/14 10:42:48;;;;;;;;;;;25.60;57.20;;;;;;5078853;28;20473;-70
2021/08/14 10:45:21;;;;;;;;;;;25.70;56.80;;;;;;5080033;28;19908;-70
2021/08/14 10:47:47;;;;;;;;;;;25.80;56.80;;;;;;5079863;28;19969;-70
2021/08/14 10:50:31;;;;;;;;;;;25.80;56.20;;;;;;5080196;28;19916;-77
2021/08/14 10:53:12;;;;;;;;;;;25.80;57.10;;;;;;5080027;28;19919;-77
2021/08/14 10:55:44;;;;;;;;;;;26.10;56.30;;;;;;5079905;28;19908;-76
2021/08/14 10:58:19;;;;;;;;;;;26.20;55.50;;;;;;5080292;28;19915;-76
2021/08/14 11:00:45;;;;;;;;;;;26.20;55.70;;;;;;5079456;28;19955;-76
2021/08/14 11:03:11;;;;;;;;;;;26.30;55.30;;;;;;5080149;28;19951;-76
2021/08/14 11:05:39;;;;;;;;;;;26.20;55.30;;;;;;5080123;28;19915;-76
2021/08/14 11:08:23;;;;;;;;;;;26.30;55.50;;;;;;5079890;28;19912;-76
2021/08/14 11:10:49;;;;;;;;;;;26.40;55.70;;;;;;5079659;28;20455;-76
2021/08/14 11:13:33;;;;;;;;;;;26.50;55.40;;;;;;5080059;28;19967;-68
2021/08/14 11:15:58;;;;;;;;;;;26.20;54.40;;;;;;5082515;28;19943;-68
2021/08/14 11:18:42;;;;;;;;;;;25.90;55.40;;;;;;5083386;28;20013;-68
2021/08/14 11:21:08;;;;;;;;;;;25.80;56.00;;;;;;5083612;28;19912;-72
2021/08/14 11:23:33;;;;;;;;;;;25.80;55.80;;;;;;5083197;28;19919;-72
2021/08/14 11:25:59;;;;;;;;;;;25.90;55.50;;;;;;5083588;28;19908;-72
2021/08/14 11:28:25;;;;;;;;;;;25.90;56.30;;;;;;5083497;28;20272;-76
2021/08/14 11:30:58;;;;;;;;;;;26.00;56.30;;;;;;5083590;28;19965;-76
2021/08/14 11:33:24;;;;;;;;;;;26.20;56.20;;;;;;5082909;28;20011;-72
2021/08/14 11:36:00;;;;;;;;;;;26.20;55.50;;;;;;5082966;28;20373;-72
2021/08/14 11:38:31;;;;;;;;;;;26.10;55.20;;;;;;5083666;28;19915;-72
2021/08/14 11:40:56;;;;;;;;;;;25.90;56.00;;;;;;5083368;28;20397;-72
2021/08/14 11:43:29;;;;;;;;;;;25.90;56.20;;;;;;5083265;28;19909;-72
2021/08/14 11:46:02;;;;;;;;;;;26.10;56.30;;;;;;5083496;28;19923;-72
2021/08/14 11:48:36;;;;;;;;;;;26.40;56.60;;;;;;5083132;28;19913;-72
2021/08/14 11:51:01;;;;;;;;;;;26.50;56.00;;;;;;5083963;28;19915;-76
2021/08/14 11:53:27;;;;;;;;;;;26.70;55.60;;;;;;5082915;28;19916;-76
2021/08/14 11:56:02;;;;;;;;;;;26.90;54.90;;;;;;5083342;28;19908;-76
2021/08/14 11:58:28;;;;;;;;;;;26.90;54.90;;;;;;5098301;28;19919;-76
2021/08/14 12:00:54;;;;;;;;;;;26.80;55.10;;;;;;5082912;28;19908;-75
2021/08/14 12:03:19;;;;;;;;;;;26.90;55.40;;;;;;5082807;28;20506;-76
2021/08/14 12:05:46;;;;;;;;;;;27.00;55.00;;;;;;5082851;28;19908;-76
2021/08/14 12:08:25;;;;;;;;;;;27.10;54.40;;;;;;5082937;28;19916;-76
2021/08/14 12:10:51;;;;;;;;;;;27.20;54.80;;;;;;5082935;28;19913;-76
2021/08/14 12:13:19;;;;;;;;;;;27.30;53.90;;;;;;5082395;28;19916;-75
2021/08/14 12:15:46;;;;;;;;;;;27.30;53.70;;;;;;5082626;28;19920;-76
2021/08/14 12:18:11;;;;;;;;;;;27.30;52.90;;;;;;5083092;28;19908;-76
2021/08/14 12:20:39;;;;;;;;;;;27.30;52.90;;;;;;5064299;28;19914;-75
2021/08/14 12:23:20;;;;;;;;;;;27.30;53.70;;;;;;5082092;28;19908;-75
2021/08/14 12:25:52;;;;;;;;;;;27.30;53.40;;;;;;5082239;28;20372;-75
2021/08/14 12:28:18;;;;;;;;;;;27.30;52.90;;;;;;5082387;28;19912;-75
2021/08/14 12:30:43;;;;;;;;;;;27.40;53.60;;;;;;5082308;28;19961;-75
2021/08/14 12:33:22;;;;;;;;;;;27.60;53.90;;;;;;5082137;28;19916;-76
2021/08/14 12:35:53;;;;;;;;;;;27.80;53.20;;;;;;5082345;28;19966;-76
2021/08/14 12:38:19;;;;;;;;;;;27.90;52.70;;;;;;5081117;28;19908;-75
2021/08/14 12:40:44;;;;;;;;;;;27.90;52.20;;;;;;5080992;28;20011;-72
2021/08/14 12:43:17;;;;;;;;;;;28.00;52.90;;;;;;5081984;28;19930;-72
2021/08/14 12:45:42;;;;;;;;;;;28.10;52.30;;;;;;5082109;28;20445;-72
2021/08/14 12:48:11;;;;;;;;;;;28.20;52.60;;;;;;5082218;28;19908;-72
2021/08/14 12:50:38;;;;;;;;;;;28.20;52.00;;;;;;5081889;28;19912;-72
2021/08/14 12:53:14;;;;;;;;;;;27.90;51.90;;;;;;5081839;28;19916;-72
2021/08/14 12:55:49;;;;;;;;;;;27.60;52.70;;;;;;5081750;28;19912;-70
2021/08/14 12:58:15;;;;;;;;;;;27.70;52.90;;;;;;5081713;28;19956;-70
2021/08/14 13:00:44;;;;;;;;;;;27.90;52.70;;;;;;5081957;28;20278;-70
2021/08/14 13:03:09;;;;;;;;;;;28.00;51.80;;;;;;5081097;28;20001;-70
2021/08/14 13:05:35;;;;;;;;;;;28.00;51.60;;;;;;5081652;28;19956;-70
2021/08/14 13:08:00;;;;;;;;;;;27.90;51.30;;;;;;5081079;28;19915;-70
2021/08/14 13:10:27;;;;;;;;;;;27.80;51.70;;;;;;5081881;28;19953;-71
2021/08/14 13:12:53;;;;;;;;;;;27.70;51.50;;;;;;5081555;28;19916;-70
2021/08/14 13:15:19;;;;;;;;;;;27.50;52.40;;;;;;5081190;28;19951;-70
2021/08/14 13:17:45;;;;;;;;;;;27.60;52.40;;;;;;5080039;28;19967;-70
2021/08/14 13:20:11;;;;;;;;;;;27.70;51.90;;;;;;5081443;28;20423;-70
2021/08/14 13:22:36;;;;;;;;;;;27.60;51.70;;;;;;5081109;28;20274;-70
2021/08/14 13:25:02;;;;;;;;;;;27.70;52.00;;;;;;5079991;28;19913;-70
2021/08/14 13:27:27;;;;;;;;;;;27.90;52.10;;;;;;5081602;28;19908;-70
2021/08/14 13:29:53;;;;;;;;;;;28.00;51.80;;;;;;5079940;28;19913;-70
2021/08/14 13:32:18;;;;;;;;;;;28.20;50.80;;;;;;5080830;28;20431;-70
2021/08/14 13:34:46;;;;;;;;;;;28.20;51.50;;;;;;5080914;28;19925;-71
2021/08/14 13:37:13;;;;;;;;;;;28.30;50.90;;;;;;5080423;28;19943;-70
2021/08/14 13:39:38;;;;;;;;;;;28.30;50.50;;;;;;5080415;28;19912;-71
2021/08/14 13:42:05;;;;;;;;;;;28.40;51.20;;;;;;5080909;28;19982;-71
2021/08/14 13:44:30;;;;;;;;;;;28.40;50.50;;;;;;5080564;28;19916;-72
2021/08/14 13:46:56;;;;;;;;;;;28.40;50.60;;;;;;5080935;28;20362;-72
2021/08/14 13:49:21;;;;;;;;;;;28.50;50.40;;;;;;5079431;28;19912;-71
2021/08/14 13:51:47;;;;;;;;;;;28.40;49.60;;;;;;5080968;28;19908;-72
2021/08/14 13:54:12;;;;;;;;;;;28.10;49.80;;;;;;5080540;28;19917;-71
2021/08/14 13:56:37;;;;;;;;;;;27.90;50.10;;;;;;5079259;28;19912;-71
2021/08/14 13:59:03;;;;;;;;;;;27.80;50.70;;;;;;5080000;28;19908;-71
2021/08/14 14:01:28;;;;;;;;;;;27.90;50.80;;;;;;5080814;28;19912;-72
2021/08/14 14:03:54;;;;;;;;;;;28.00;50.60;;;;;;5080500;28;19916;-72
2021/08/14 14:06:19;;;;;;;;;;;28.10;50.20;;;;;;5079442;28;19912;-71
2021/08/14 14:08:45;;;;;;;;;;;28.20;50.60;;;;;;5080614;28;20299;-72
2021/08/14 14:11:10;;;;;;;;;;;28.50;50.00;;;;;;5080573;28;19963;-71
2021/08/14 14:13:36;;;;;;;;;;;28.60;49.30;;;;;;5080689;28;20014;-70